Time;durP1;ratioP1;P1;durP2;ratioP2;P2;SDS_P1;SDS_P2;PMS_P1;PMS_P2;Temp;Humidity;BMP_temperature;BMP_pressure;BME280_temperature;BME280_humidity;BME280_pressure;Samples;Min_cycle;Max_cycle;Signal;HPM_P1;HPM_P2
2021/05/25 00:01:12;;;;;;;10.10;9.10;;;;;;;20.31;65.77;94836.44;828780;71;32481;-77
2021/05/25 00:16:08;;;;;;;9.50;8.70;;;;;;;19.91;67.32;94832.73;828271;71;29726;-76
2021/05/25 00:31:15;;;;;;;8.43;7.62;;;;;;;19.82;65.65;94834.75;828679;71;32644;-75
2021/05/25 00:46:14;;;;;;;13.25;12.00;;;;;;;19.71;66.95;94802.51;828910;71;32107;-75
2021/05/25 01:01:10;;;;;;;15.35;13.85;;;;;;;19.37;69.78;94793.14;828112;71;30384;-77
2021/05/25 01:16:09;;;;;;;9.10;7.75;;;;;;;19.14;68.35;94820.22;828753;71;29794;-75
2021/05/25 01:31:17;;;;;;;10.03;7.83;;;;;;;19.14;67.96;94811.45;833737;71;32682;-78
2021/05/25 01:46:14;;;;;;;13.50;11.93;;;;;;;19.05;68.91;94784.97;833709;71;32726;-78
2021/05/25 02:01:13;;;;;;;15.28;13.65;;;;;;;18.95;69.71;94789.41;827969;71;30383;-75
2021/05/25 02:16:16;;;;;;;12.45;11.30;;;;;;;18.61;70.42;94786.05;827312;71;32799;-75
2021/05/25 02:31:11;;;;;;;18.95;16.42;;;;;;;18.36;71.67;94779.94;828196;71;30315;-75
2021/05/25 02:46:09;;;;;;;19.65;16.75;;;;;;;18.19;72.75;94764.41;828175;71;29772;-76
2021/05/25 03:01:59;;;;;;;19.87;17.35;;;;;;;18.09;73.21;94790.06;827456;71;32676;-76
2021/05/25 03:16:17;;;;;;;22.30;18.98;;;;;;;18.14;72.67;94771.80;833797;71;32980;-76
2021/05/25 03:31:09;;;;;;;23.25;17.82;;;;;;;18.11;72.83;94785.20;835603;71;29782;-75
2021/05/25 03:46:08;;;;;;;21.42;17.05;;;;;;;18.24;72.27;94814.45;828973;71;29791;-76
2021/05/25 04:01:16;;;;;;;20.40;17.15;;;;;;;18.44;71.77;94820.25;833851;71;32728;-74
2021/05/25 04:16:15;;;;;;;21.02;17.07;;;;;;;18.61;71.03;94805.45;827236;71;32783;-76
2021/05/25 04:31:08;;;;;;;18.50;15.75;;;;;;;18.87;71.12;94822.21;828210;71;30182;-75
2021/05/25 04:46:08;;;;;;;19.40;16.12;;;;;;;19.33;68.93;94848.14;828339;71;29787;-75
2021/05/25 05:01:08;;;;;;;18.62;13.90;;;;;;;20.31;65.28;94845.77;833852;71;29749;-76
2021/05/25 05:16:08;;;;;;;14.05;12.65;;;;;;;20.31;64.48;94850.53;834240;71;29827;-76
2021/05/25 05:31:10;;;;;;;18.15;13.35;;;;;;;20.01;65.38;94862.09;828248;71;29786;-76
2021/05/25 05:46:08;;;;;;;12.90;11.40;;;;;;;21.14;62.12;94869.95;834207;71;29658;-78
2021/05/25 06:01:14;;;;;;;14.15;12.55;;;;;;;21.49;60.32;94856.68;828842;71;32740;-76
2021/05/25 06:16:08;;;;;;;12.53;11.12;;;;;;;22.47;57.77;94852.15;834298;71;29661;-78
2021/05/25 06:31:13;;;;;;;10.87;9.70;;;;;;;22.68;56.31;94867.80;828588;71;32629;-77
2021/05/25 06:46:14;;;;;;;10.93;9.90;;;;;;;23.18;55.37;94852.59;834157;71;32716;-77
2021/05/25 07:01:14;;;;;;;10.67;9.67;;;;;;;23.09;55.14;94825.28;828854;71;32720;-77
2021/05/25 07:16:13;;;;;;;12.50;11.30;;;;;;;23.93;53.66;94818.03;829319;71;31396;-77
2021/05/25 07:31:09;;;;;;;13.57;12.27;;;;;;;23.10;55.91;94795.28;829367;71;29687;-77
2021/05/25 07:46:09;;;;;;;11.03;9.93;;;;;;;23.27;55.54;94817.52;829751;71;29724;-79
2021/05/25 08:01:09;;;;;;;12.30;11.20;;;;;;;22.71;56.86;94807.44;834085;71;29741;-76
2021/05/25 08:16:15;;;;;;;11.77;10.67;;;;;;;22.67;57.34;94798.05;834647;71;32702;-77
2021/05/25 08:31:09;;;;;;;13.63;12.30;;;;;;;22.58;58.01;94792.91;834120;71;30337;-78
2021/05/25 08:46:12;;;;;;;14.20;12.80;;;;;;;23.17;56.25;94789.45;834035;71;32563;-77
2021/05/25 09:01:53;;;;;;;14.20;12.13;;;;;;;23.85;54.87;94782.13;834174;71;30801;-78
2021/05/25 09:16:14;;;;;;;14.50;13.10;;;;;;;23.66;54.87;94766.93;834097;71;32721;-77
2021/05/25 09:31:09;;;;;;;15.67;13.47;;;;;;;23.28;56.23;94757.48;829062;71;30157;-77
2021/05/25 09:46:13;;;;;;;13.53;12.23;;;;;;;23.60;56.17;94758.44;834150;71;29762;-77
2021/05/25 10:01:19;;;;;;;15.67;14.07;;;;;;;23.83;55.48;94753.01;827493;71;32744;-77
2021/05/25 10:16:16;;;;;;;14.43;12.93;;;;;;;24.38;54.34;94726.92;835648;71;32686;-78
2021/05/25 10:31:39;;;;;;;14.70;13.30;;;;;;;24.22;54.11;94707.62;828120;71;33530;-78
2021/05/25 10:46:21;;;;;;;14.80;13.30;;;;;;;24.50;53.30;94689.10;834271;71;33265;-79
2021/05/25 11:01:09;;;;;;;13.90;12.60;;;;;;;24.43;53.94;94695.72;828400;71;30149;-78
2021/05/25 11:16:19;;;;;;;13.13;11.83;;;;;;;25.83;51.83;94664.80;829105;71;29670;-77
2021/05/25 11:31:09;;;;;;;13.10;11.97;;;;;;;26.36;49.59;94640.66;834337;71;30298;-79
2021/05/25 11:46:08;;;;;;;13.37;11.80;;;;;;;26.67;49.48;94648.36;834150;71;29710;-77
2021/05/25 12:01:19;;;;;;;13.00;11.70;;;;;;;27.20;48.81;163035.80;827896;71;32715;-77
2021/05/25 12:16:09;;;;;;;13.27;11.97;;;;;;;;;;828966;71;29801;-78
2021/05/25 12:31:08;;;;;;;11.97;10.97;;;;;;;27.51;48.24;94623.44;828384;71;29766;-79
2021/05/25 12:46:13;;;;;;;11.27;10.17;;;;;;;;;;827492;71;33238;-78
2021/05/25 13:01:31;;;;;;;10.07;9.27;;;;;;;26.83;48.15;94561.77;828347;71;30414;-78
2021/05/25 13:16:26;;;;;;;10.60;9.60;;;;;;;26.78;48.17;94561.02;826741;71;33499;-77
2021/05/25 13:31:18;;;;;;;9.93;8.90;;;;;;;;;;828335;71;30704;-78
2021/05/25 13:46:14;;;;;;;8.97;8.07;;;;;;;26.28;48.75;94527.48;829222;70;32760;-78
2021/05/25 14:16:12;;;;;;;10.30;7.67;;;;;;;25.67;50.58;94513.27;829371;71;31622;-76
2021/05/25 14:31:08;;;;;;;9.00;8.10;;;;;;;25.42;51.71;94503.29;834196;71;29818;-76
2021/05/25 14:46:20;;;;;;;8.57;7.80;;;;;;;25.54;51.59;94509.62;820831;71;33264;-77
2021/05/25 15:02:02;;;;;;;9.47;8.77;;;;;;;25.26;53.07;94476.03;821656;71;32821;-79
2021/05/25 15:16:16;;;;;;;9.10;8.30;;;;;;;24.73;53.72;94459.98;821400;71;29796;-79
2021/05/25 15:31:25;;;;;;;10.27;9.37;;;;;;;24.33;54.47;94454.45;822048;71;32816;-79
2021/05/25 16:01:35;;;;;;;10.00;9.20;;;;;;;23.57;57.08;94457.80;823270;71;33868;-82
2021/05/25 16:16:45;;;;;;;12.37;10.87;;;;;;;22.89;60.31;94435.21;820074;71;32864;-81
2021/05/25 16:31:24;;;;;;;13.33;12.17;;;;;;;22.44;62.35;94433.57;824470;71;32875;-78
2021/05/25 17:31:27;;;;;;;21.20;19.10;;;;;;;21.01;67.51;94454.38;827132;71;32771;-80
2021/05/25 17:46:14;;;;;;;20.95;18.60;;;;;;;20.70;68.42;94463.34;827446;71;32669;-78
2021/05/25 18:01:14;;;;;;;18.82;16.95;;;;;;;20.54;68.98;94460.72;820309;70;29715;-78
2021/05/25 18:16:10;;;;;;;17.82;16.10;;;;;;;20.34;69.75;94467.41;827995;71;30885;-77
2021/05/25 18:31:24;;;;;;;16.42;14.83;;;;;;;20.25;70.09;94484.71;827108;71;32776;-78
2021/05/25 18:46:08;;;;;;;16.85;15.32;;;;;;;20.08;70.83;94494.65;829541;71;29768;-78
2021/05/25 19:01:14;;;;;;;18.10;16.35;;;;;;;19.94;71.13;94512.42;827362;71;32743;-78
2021/05/25 19:16:14;;;;;;;16.23;14.63;;;;;;;20.00;70.77;94531.57;827346;71;32673;-78
2021/05/25 19:31:10;;;;;;;17.73;16.07;;;;;;;20.01;70.81;94533.90;819154;71;30426;-77
2021/05/25 19:46:08;;;;;;;18.23;16.55;;;;;;;20.12;70.39;94542.12;824134;71;28787;-76
2021/05/25 20:01:12;;;;;;;22.00;19.70;;;;;;;20.19;70.49;94550.81;828288;71;31505;-75
2021/05/25 20:16:14;;;;;;;20.35;18.37;;;;;;;20.76;72.17;94550.73;827647;71;31851;-75
2021/05/25 20:31:14;;;;;;;21.10;18.90;;;;;;;20.85;71.30;94549.74;827543;71;31774;-76
2021/05/25 20:46:14;;;;;;;19.23;17.42;;;;;;;20.60;70.69;94558.78;826937;71;31739;-74
2021/05/25 21:16:11;;;;;;;18.20;16.70;;;;;;;20.97;68.83;94574.37;822223;71;28792;-75
2021/05/25 21:31:09;;;;;;;18.65;17.15;;;;;;;21.02;68.37;94575.98;819314;71;29390;-75
2021/05/25 21:46:09;;;;;;;17.15;15.75;;;;;;;21.04;68.06;94585.73;821394;71;28757;-76
2021/05/25 22:01:14;;;;;;;17.80;16.00;;;;;;;20.97;68.13;94586.38;827756;71;31919;-75
2021/05/25 22:16:08;;;;;;;17.95;16.25;;;;;;;20.98;67.79;94581.23;834103;71;28745;-75
2021/05/25 22:31:08;;;;;;;16.70;15.30;;;;;;;20.90;67.91;94576.88;834116;71;28679;-74
2021/05/25 22:46:14;;;;;;;18.35;16.45;;;;;;;20.88;67.93;94561.80;833923;71;31750;-76
2021/05/25 23:01:13;;;;;;;17.45;15.83;;;;;;;20.83;67.78;94549.33;834620;71;32508;-74
2021/05/25 23:16:09;;;;;;;17.92;16.23;;;;;;;20.83;67.92;94562.09;833886;71;29312;-76
2021/05/25 23:31:14;;;;;;;16.48;15.00;;;;;;;20.74;68.09;94554.30;827487;71;31837;-76
2021/05/25 23:46:13;;;;;;;17.20;15.50;;;;;;;20.69;68.06;94533.23;835843;71;31733;-75
